Peotone Weather
Station Historical Data
 
Daily Summary for July 21, 2017 Units:  English    Metric   Both
« Previous Day
Next Day »
Daily Weekly Monthly Yearly Custom
  Current: High: Low: Average:
Temperature: 74.7 °F 75.5 °F 70.8 °F 73 °F
Dew Point: 72.6 °F 73.2 °F 69.4 °F 71.1 °F
Humidity: 93% 97% 86% 94%
Wind Speed: 2.3mph 17.2mph 0.0mph 1.8mph
Wind Gust: 4.6mph 26.4mph - -
WindSouth - - SSE
Pressure: 29.96 in 30.02 in 29.92 in -
Precipitation: 0.30 in      
Historical Graphs
 
 
Tabular Data for July 21, 2017
Time Temperature Dew Point Pressure Wind Wind Speed Wind Gust Humidity Rainfall Rate (Hourly) solar Conditions
00:00 75.0 °F 72.2 °F 29.93 in ENE 4.6 mph 5.8 mph 91% 0.00 in 0.00 W/m2
00:04 75.1 °F 72.3 °F 29.93 in Calm   4.6 mph 91% 0.00 in 0.00 W/m2
00:05 75.2 °F 72.4 °F 29.93 in ENE 1.1 mph 4.6 mph 91% 0.00 in 0.00 W/m2
00:09 75.2 °F 72.4 °F 29.93 in Calm   1.1 mph 91% 0.00 in 0.00 W/m2
00:10 75.3 °F 72.5 °F 29.93 in ENE 2.3 mph 3.5 mph 91% 0.00 in 0.00 W/m2
00:14 75.3 °F 72.2 °F 29.93 in Calm   3.4 mph 90% 0.00 in 0.00 W/m2
00:15 75.3 °F 72.2 °F 29.93 in Calm   3.5 mph 90% 0.00 in 0.00 W/m2
00:19 75.3 °F 72.2 °F 29.92 in Calm   3.4 mph 90% 0.00 in 0.00 W/m2
00:20 75.3 °F 72.2 °F 29.92 in Calm   3.5 mph 90% 0.00 in 0.00 W/m2
00:24 75.3 °F 72.2 °F 29.92 in Calm   1.1 mph 90% 0.00 in 0.00 W/m2
00:25 75.2 °F 72.1 °F 29.92 in Calm   1.1 mph 90% 0.00 in 0.00 W/m2
00:29 75.1 °F 72.3 °F 29.92 in Calm   1.1 mph 91% 0.00 in 0.00 W/m2
00:30 75.1 °F 72.3 °F 29.92 in Calm   1.1 mph 91% 0.00 in 0.00 W/m2
00:34 75.1 °F 72.3 °F 29.92 in ENE 2.3 mph 2.3 mph 91% 0.00 in 0.00 W/m2
00:35 75.2 °F 72.1 °F 29.92 in Calm   3.5 mph 90% 0.00 in 0.00 W/m2
00:39 75.2 °F 72.1 °F 29.92 in Calm   5.8 mph 90% 0.00 in 0.00 W/m2
00:40 75.1 °F 72.3 °F 29.92 in Calm   5.8 mph 91% 0.00 in 0.00 W/m2
00:44 75.0 °F 72.2 °F 29.92 in Calm   4.6 mph 91% 0.00 in 0.00 W/m2
00:45 74.9 °F 72.1 °F 29.92 in Calm   4.6 mph 91% 0.00 in 0.00 W/m2
00:49 74.9 °F 72.1 °F 29.92 in ENE 2.3 mph 4.6 mph 91% 0.00 in 0.00 W/m2
00:50 74.9 °F 72.1 °F 29.92 in ENE 2.3 mph 4.6 mph 91% 0.00 in 0.00 W/m2
00:54 74.9 °F 72.1 °F 29.92 in Calm   2.3 mph 91% 0.00 in 0.00 W/m2
00:55 74.8 °F 72.0 °F 29.92 in Calm   2.3 mph 91% 0.00 in 0.00 W/m2
00:59 74.8 °F 72.0 °F 29.92 in Calm   3.4 mph 91% 0.00 in 0.00 W/m2
01:00 74.8 °F 72.0 °F 29.93 in Calm   3.5 mph 91% 0.00 in 0.00 W/m2
01:04 74.8 °F 72.0 °F 29.93 in Calm     91% 0.00 in 0.00 W/m2
01:05 74.8 °F 72.0 °F 29.92 in Calm     91% 0.00 in 0.00 W/m2
01:09 74.7 °F 71.9 °F 29.92 in Calm   2.3 mph 91% 0.00 in 0.00 W/m2
01:10 74.7 °F 71.9 °F 29.92 in ENE 1.1 mph 2.3 mph 91% 0.00 in 0.00 W/m2
01:14 74.7 °F 71.9 °F 29.93 in Calm   2.3 mph 91% 0.00 in 0.00 W/m2
01:15 74.7 °F 71.9 °F 29.93 in ENE 1.1 mph 2.3 mph 91% 0.00 in 0.00 W/m2
01:19 74.8 °F 72.0 °F 29.93 in Calm   3.4 mph 91% 0.00 in 0.00 W/m2
01:20 74.8 °F 72.0 °F 29.93 in ENE 1.1 mph 3.5 mph 91% 0.00 in 0.00 W/m2
01:24 74.8 °F 72.0 °F 29.93 in Calm   1.1 mph 91% 0.00 in 0.00 W/m2
01:25 74.8 °F 72.0 °F 29.93 in Calm   3.5 mph 91% 0.00 in 0.00 W/m2
01:29 74.8 °F 72.0 °F 29.93 in Calm   3.4 mph 91% 0.00 in 0.00 W/m2
01:30 74.8 °F 72.0 °F 29.93 in NE 2.3 mph 3.5 mph 91% 0.00 in 0.00 W/m2
01:34 74.7 °F 71.9 °F 29.93 in Calm   3.4 mph 91% 0.00 in 0.00 W/m2
01:35 74.7 °F 71.9 °F 29.93 in Calm   3.5 mph 91% 0.00 in 0.00 W/m2
01:39 74.6 °F 71.8 °F 29.93 in NE 2.3 mph 3.4 mph 91% 0.00 in 0.00 W/m2
01:40 74.6 °F 71.8 °F 29.93 in NE 1.1 mph 4.6 mph 91% 0.00 in 0.00 W/m2
01:44 74.6 °F 71.8 °F 29.93 in Calm   3.4 mph 91% 0.00 in 0.00 W/m2
01:45 74.6 °F 71.8 °F 29.94 in Calm   3.5 mph 91% 0.00 in 0.00 W/m2
01:49 74.7 °F 71.9 °F 29.95 in Calm   1.1 mph 91% 0.00 in 0.00 W/m2
01:50 74.7 °F 71.9 °F 29.95 in Calm   1.1 mph 91% 0.00 in 0.00 W/m2
01:54 74.8 °F 72.0 °F 29.95 in Calm     91% 0.00 in 0.00 W/m2
01:55 74.8 °F 72.0 °F 29.96 in NE 2.3 mph 2.3 mph 91% 0.00 in 0.00 W/m2
01:59 75.1 °F 72.3 °F 29.98 in SW 12.6 mph 13.8 mph 91% 0.00 in 0.00 W/m2
02:00 75.3 °F 72.5 °F 29.98 in WSW 5.8 mph 14.9 mph 91% 0.00 in 0.00 W/m2
02:05 75.5 °F 72.4 °F 29.99 in WSW 11.5 mph 17.2 mph 90% 0.00 in 0.00 W/m2
02:10 74.8 °F 70.3 °F 29.98 in SW 11.5 mph 20.7 mph 86% 0.00 in 0.00 W/m2
02:15 73.8 °F 69.7 °F 29.98 in WSW 10.3 mph 16.1 mph 87% 0.00 in 0.00 W/m2
02:20 73.1 °F 70.0 °F 30.00 in West 17.2 mph 17.2 mph 90% 0.00 in 0.00 W/m2
02:25 72.7 °F 69.9 °F 30.01 in SW 10.3 mph 26.4 mph 91% 0.05 in 0.00 W/m2
02:30 72.1 °F 69.7 °F 30.02 in West 12.6 mph 19.5 mph 92% 0.14 in 0.00 W/m2
02:35 71.8 °F 69.7 °F 30.01 in West 5.8 mph 12.6 mph 93% 0.19 in 0.00 W/m2
02:40 71.6 °F 69.8 °F 29.99 in West 4.6 mph 10.3 mph 94% 0.21 in 0.00 W/m2
02:45 71.4 °F 69.6 °F 29.99 in NNW 4.6 mph 8.1 mph 94% 0.22 in 0.00 W/m2
02:50 71.2 °F 69.4 °F 29.98 in NNW 6.9 mph 8.1 mph 94% 0.22 in 0.00 W/m2
02:55 71.2 °F 69.7 °F 29.97 in North 4.6 mph 9.2 mph 95% 0.22 in 0.00 W/m2
03:00 71.3 °F 69.8 °F 29.95 in North 5.8 mph 10.3 mph 95% 0.23 in 0.00 W/m2
03:05 71.5 °F 70.0 °F 29.95 in ENE 5.8 mph 5.8 mph 95% 0.24 in 0.00 W/m2
03:10 71.5 °F 70.0 °F 29.95 in ENE 5.8 mph 9.2 mph 95% 0.26 in 0.00 W/m2
03:15 71.4 °F 69.9 °F 29.95 in NE 3.4 mph 8.1 mph 95% 0.26 in 0.00 W/m2
03:20 71.3 °F 69.8 °F 29.95 in Calm   9.2 mph 95% 0.27 in 0.00 W/m2
03:25 71.2 °F 69.7 °F 29.94 in ESE 2.3 mph 5.8 mph 95% 0.27 in 0.00 W/m2
03:30 71.1 °F 69.9 °F 29.94 in Calm   4.6 mph 96% 0.17 in 0.00 W/m2
03:35 71.1 °F 69.9 °F 29.94 in ESE 2.3 mph 3.4 mph 96% 0.12 in 0.00 W/m2
03:40 71.1 °F 69.9 °F 29.93 in Calm   4.6 mph 96% 0.08 in 0.00 W/m2
03:45 71.1 °F 69.9 °F 29.94 in Calm     96% 0.07 in 0.00 W/m2
03:51 71.0 °F 69.8 °F 29.94 in ESE 3.4 mph 3.4 mph 96% 0.07 in 0.00 W/m2
03:56 71.1 °F 69.9 °F 29.94 in ESE 1.1 mph 2.3 mph 96% 0.07 in 0.00 W/m2
04:01 71.2 °F 70.0 °F 29.94 in SSE 4.6 mph 6.9 mph 96% 0.07 in 0.00 W/m2
04:06 71.2 °F 70.0 °F 29.94 in SSE 5.8 mph 6.9 mph 96% 0.05 in 0.00 W/m2
04:11 71.2 °F 70.0 °F 29.94 in SSE 1.1 mph 6.9 mph 96% 0.05 in 0.00 W/m2
04:16 71.2 °F 70.0 °F 29.95 in Calm   4.6 mph 96% 0.04 in 0.00 W/m2
04:21 71.2 °F 70.0 °F 29.94 in SSE 1.1 mph 5.8 mph 96% 0.04 in 0.00 W/m2
04:26 71.1 °F 69.9 °F 29.95 in Calm   6.9 mph 96% 0.03 in 0.00 W/m2
04:31 71.0 °F 69.8 °F 29.94 in SE 3.4 mph 5.8 mph 96% 0.03 in 0.00 W/m2
04:36 71.0 °F 69.8 °F 29.95 in ESE 2.3 mph 4.6 mph 96% 0.03 in 0.00 W/m2
04:41 71.0 °F 69.8 °F 29.95 in Calm   2.3 mph 96% 0.02 in 0.00 W/m2
04:46 71.0 °F 69.8 °F 29.96 in Calm   4.6 mph 96% 0.02 in 0.00 W/m2
04:51 71.0 °F 69.8 °F 29.96 in Calm     96% 0.01 in 0.00 W/m2
04:56 71.0 °F 70.1 °F 29.96 in Calm     97% 0.01 in 0.00 W/m2
05:01 71.0 °F 70.1 °F 29.96 in Calm     97% 0.01 in 0.00 W/m2
05:06 70.9 °F 69.7 °F 29.96 in Calm     96% 0.00 in 0.00 W/m2
05:11 70.9 °F 69.7 °F 29.96 in Calm     96% 0.00 in 0.00 W/m2
05:16 70.9 °F 69.7 °F 29.96 in Calm     96% 0.00 in 0.00 W/m2
05:21 71.0 °F 70.1 °F 29.95 in Calm   3.4 mph 97% 0.00 in 0.00 W/m2
05:26 71.1 °F 70.2 °F 29.95 in Calm   1.1 mph 97% 0.00 in 0.00 W/m2
05:31 71.0 °F 70.1 °F 29.95 in Calm     97% 0.00 in 0.00 W/m2
05:37 71.1 °F 70.2 °F 29.95 in Calm     97% 0.00 in 0.00 W/m2
05:42 71.1 °F 70.2 °F 29.95 in Calm     97% 0.00 in 0.00 W/m2
05:47 71.0 °F 70.1 °F 29.95 in Calm     97% 0.00 in 0.00 W/m2
05:52 70.9 °F 70.0 °F 29.95 in Calm     97% 0.00 in 5.00 W/m2
05:57 70.9 °F 70.0 °F 29.95 in Calm     97% 0.00 in 5.00 W/m2
06:02 71.0 °F 70.1 °F 29.95 in Calm   1.1 mph 97% 0.00 in 9.00 W/m2
06:07 70.9 °F 70.0 °F 29.95 in Calm     97% 0.00 in 12.00 W/m2
06:12 70.9 °F 70.0 °F 29.95 in Calm     97% 0.00 in 18.00 W/m2
06:17 70.9 °F 70.0 °F 29.95 in Calm     97% 0.00 in 23.00 W/m2
06:22 70.8 °F 69.9 °F 29.95 in Calm     97% 0.00 in 28.00 W/m2
06:27 70.9 °F 70.0 °F 29.95 in Calm     97% 0.00 in 33.00 W/m2
06:32 70.9 °F 70.0 °F 29.95 in Calm     97% 0.00 in 39.00 W/m2
06:37 71.1 °F 70.2 °F 29.95 in Calm     97% 0.00 in 44.00 W/m2
06:42 71.1 °F 70.2 °F 29.95 in Calm     97% 0.00 in 47.00 W/m2
06:47 71.2 °F 70.3 °F 29.95 in Calm     97% 0.00 in 47.00 W/m2
06:52 71.3 °F 70.4 °F 29.95 in Calm     97% 0.00 in 47.00 W/m2
06:57 71.3 °F 70.4 °F 29.95 in Calm     97% 0.00 in 51.00 W/m2
07:02 71.4 °F 70.5 °F 29.95 in Calm     97% 0.00 in 51.00 W/m2
07:07 71.3 °F 70.4 °F 29.94 in Calm     97% 0.00 in 42.00 W/m2
07:12 71.2 °F 70.3 °F 29.94 in Calm   1.1 mph 97% 0.00 in 42.00 W/m2
07:17 71.2 °F 70.3 °F 29.94 in East 1.1 mph 2.3 mph 97% 0.00 in 51.00 W/m2
07:22 71.3 °F 70.4 °F 29.93 in Calm     97% 0.00 in 62.00 W/m2
07:27 71.5 °F 70.6 °F 29.94 in East 1.1 mph 5.8 mph 97% 0.00 in 72.00 W/m2
07:32 71.6 °F 70.7 °F 29.94 in Calm     97% 0.00 in 86.00 W/m2
07:37 71.5 °F 70.6 °F 29.94 in Calm     97% 0.00 in 116.00 W/m2
07:42 71.9 °F 71.0 °F 29.94 in East 3.4 mph 5.8 mph 97% 0.00 in 146.00 W/m2
07:47 71.9 °F 71.0 °F 29.94 in Calm   1.1 mph 97% 0.00 in 135.00 W/m2
07:52 72.1 °F 71.2 °F 29.94 in ESE 3.4 mph 3.4 mph 97% 0.00 in 134.00 W/m2
07:57 72.2 °F 71.3 °F 29.94 in Calm   2.3 mph 97% 0.00 in 141.00 W/m2
08:02 72.3 °F 71.4 °F 29.94 in Calm     97% 0.00 in 142.00 W/m2
08:07 72.3 °F 71.4 °F 29.94 in Calm     97% 0.00 in 155.00 W/m2
08:12 72.6 °F 71.7 °F 29.95 in Calm     97% 0.00 in 148.00 W/m2
08:18 72.8 °F 71.9 °F 29.95 in Calm     97% 0.00 in 160.00 W/m2
08:23 73.0 °F 72.1 °F 29.96 in Calm     97% 0.00 in 193.00 W/m2
08:28 73.0 °F 72.1 °F 29.96 in Calm   1.1 mph 97% 0.00 in 213.00 W/m2
08:33 73.2 °F 72.3 °F 29.97 in Calm   1.1 mph 97% 0.00 in 207.00 W/m2
08:38 73.3 °F 72.4 °F 29.97 in SSW 2.3 mph 2.3 mph 97% 0.00 in 190.00 W/m2
08:43 73.6 °F 72.4 °F 29.98 in SSW 3.4 mph 3.4 mph 96% 0.00 in 209.00 W/m2
08:48 73.8 °F 72.6 °F 29.99 in SW 5.8 mph 6.9 mph 96% 0.00 in 213.00 W/m2
08:53 74.4 °F 73.2 °F 29.99 in SSW 3.4 mph 9.2 mph 96% 0.00 in 315.00 W/m2
08:58 74.5 °F 73.0 °F 29.99 in WSW 3.4 mph 4.6 mph 95% 0.00 in 304.00 W/m2
09:03 74.5 °F 72.7 °F 29.98 in WSW 4.6 mph 5.8 mph 94% 0.00 in 255.00 W/m2
09:08 74.4 °F 72.6 °F 29.98 in West 4.6 mph 8.1 mph 94% 0.00 in 274.00 W/m2
09:13 74.7 °F 72.9 °F 29.97 in SW 1.1 mph 8.1 mph 94% 0.00 in 253.00 W/m2
09:18 74.8 °F 72.6 °F 29.97 in SW 2.3 mph 8.1 mph 93% 0.00 in 244.00 W/m2
09:23 75.1 °F 72.9 °F 29.97 in SSW 2.3 mph 10.3 mph 93% 0.00 in 220.00 W/m2
09:28 75.0 °F 72.5 °F 29.97 in SW 6.9 mph 9.2 mph 92% 0.00 in 190.00 W/m2
09:33 75.0 °F 72.5 °F 29.96 in South 4.6 mph 5.8 mph 92% 0.00 in 190.00 W/m2
09:38 74.8 °F 72.3 °F 29.96 in Calm   6.9 mph 92% 0.00 in 174.00 W/m2
09:43 74.7 °F 72.6 °F 29.96 in South 2.3 mph 4.6 mph 93% 0.00 in 253.00 W/m2
peotoneweather.com
Compliments of Weather Underground - 1 mb